createdAt,value
2017-07-02T00:00:09.509Z,15.93
2017-07-02T00:01:09.493Z,15.92
2017-07-02T00:02:09.521Z,15.88
2017-07-02T00:03:09.447Z,15.88
2017-07-02T00:04:09.427Z,15.99
2017-07-02T00:05:09.403Z,15.88
2017-07-02T00:06:09.379Z,15.95
2017-07-02T00:07:09.361Z,15.88
2017-07-02T00:08:09.389Z,16.01
2017-07-02T00:09:09.368Z,15.98
2017-07-02T00:10:09.303Z,15.93
2017-07-02T00:11:09.276Z,16.01
2017-07-02T00:12:09.260Z,15.99
2017-07-02T00:13:09.242Z,15.95
2017-07-02T00:14:09.269Z,16.03
2017-07-02T00:15:09.194Z,15.85
2017-07-02T00:16:09.171Z,15.96
2017-07-02T00:17:09.154Z,15.89
2017-07-02T00:18:09.129Z,15.91
2017-07-02T00:19:09.107Z,15.86
2017-07-02T00:20:09.140Z,15.95
2017-07-02T00:21:09.072Z,15.86
2017-07-02T00:22:09.049Z,15.89
2017-07-02T00:23:09.074Z,15.84
2017-07-02T00:24:09.005Z,15.92
2017-07-02T00:25:08.980Z,15.81
2017-07-02T00:26:08.969Z,15.81
2017-07-02T00:27:08.987Z,15.86
2017-07-02T00:28:08.923Z,15.86
2017-07-02T00:29:08.903Z,15.85
2017-07-02T00:30:08.874Z,15.86
2017-07-02T00:31:08.860Z,15.86
2017-07-02T00:32:08.887Z,15.8
2017-07-02T00:33:08.521Z,15.8
2017-07-02T00:34:08.795Z,15.85
2017-07-02T00:35:08.827Z,15.78
2017-07-02T00:36:08.754Z,15.77
2017-07-02T00:37:08.794Z,15.77
2017-07-02T00:38:08.715Z,15.71
2017-07-02T00:39:08.740Z,15.77
2017-07-02T00:40:08.667Z,15.68
2017-07-02T00:41:08.650Z,15.64
2017-07-02T00:42:08.629Z,15.62
2017-07-02T00:43:08.608Z,15.58
2017-07-02T00:44:08.282Z,15.49
2017-07-02T00:45:08.279Z,15.51
2017-07-02T00:46:08.794Z,15.48
2017-07-02T00:47:08.526Z,15.46
2017-07-02T00:48:08.498Z,15.46
2017-07-02T00:49:08.482Z,15.35
2017-07-02T00:50:08.457Z,15.43
2017-07-02T00:51:08.437Z,15.41
2017-07-02T00:52:08.420Z,15.35
2017-07-02T00:53:08.398Z,15.38
2017-07-02T00:54:08.378Z,15.34
2017-07-02T00:55:08.361Z,15.28
2017-07-02T00:56:08.340Z,15.25
2017-07-02T00:57:08.315Z,15.3
2017-07-02T00:58:08.292Z,15.25
2017-07-02T00:59:08.274Z,15.28
2017-07-02T01:00:08.311Z,15.28
2017-07-02T01:01:08.235Z,15.18
2017-07-02T01:02:08.206Z,15.16
2017-07-02T01:03:08.187Z,15.25
2017-07-02T01:04:08.161Z,15.19
2017-07-02T01:05:08.400Z,15.18
2017-07-02T01:06:08.122Z,15.2
2017-07-02T01:07:08.122Z,15.19
2017-07-02T01:08:07.784Z,15.2
2017-07-02T01:09:08.056Z,15.19
2017-07-02T01:10:08.057Z,15.16
2017-07-02T01:11:07.714Z,15.22
2017-07-02T01:12:07.999Z,15.15
2017-07-02T01:13:07.985Z,15.2
2017-07-02T01:14:07.958Z,15.07
2017-07-02T01:15:07.931Z,15.07
2017-07-02T01:16:07.913Z,15.12
2017-07-02T01:17:07.890Z,15.11
2017-07-02T01:18:07.870Z,15.04
2017-07-02T01:19:07.852Z,15.11
2017-07-02T01:20:07.829Z,15.07
2017-07-02T01:21:07.859Z,15.15
2017-07-02T01:22:07.785Z,15.13
2017-07-02T01:23:07.763Z,15.07
2017-07-02T01:24:07.738Z,15.09
2017-07-02T01:25:07.724Z,15.09
2017-07-02T01:26:07.702Z,15.11
2017-07-02T01:27:07.678Z,15.12
2017-07-02T01:28:07.659Z,15.09
2017-07-02T01:29:07.338Z,15.19
2017-07-02T01:30:07.615Z,15.12
2017-07-02T01:31:07.593Z,15.11
2017-07-02T01:32:07.573Z,15.07
2017-07-02T01:33:07.563Z,15.07
2017-07-02T01:34:07.536Z,15.13
2017-07-02T01:35:07.207Z,15.09
2017-07-02T01:36:07.489Z,15.09
2017-07-02T01:37:07.470Z,15.07
2017-07-02T01:38:07.446Z,15.07
2017-07-02T01:39:07.431Z,15.11
2017-07-02T01:40:07.457Z,14.97
2017-07-02T01:41:07.391Z,14.98
2017-07-02T01:42:07.360Z,15.03
2017-07-02T01:43:07.345Z,14.98
2017-07-02T01:44:07.374Z,15.07
2017-07-02T01:45:07.298Z,15.04
2017-07-02T01:46:07.273Z,14.95
2017-07-02T01:47:07.260Z,14.94
2017-07-02T01:48:07.242Z,14.98
2017-07-02T01:49:07.215Z,15
2017-07-02T01:50:07.194Z,14.97
2017-07-02T01:51:07.179Z,14.93
2017-07-02T01:52:06.846Z,14.94
2017-07-02T01:53:07.128Z,14.85
2017-07-02T01:54:06.815Z,14.87
2017-07-02T01:55:07.090Z,14.86
2017-07-02T01:56:07.069Z,14.86
2017-07-02T01:57:07.044Z,14.86
2017-07-02T01:58:07.024Z,14.82
2017-07-02T01:59:07.004Z,14.75
2017-07-02T02:00:06.674Z,14.8
2017-07-02T02:01:06.965Z,14.72
2017-07-02T02:02:06.941Z,14.75
2017-07-02T02:03:06.919Z,14.75
2017-07-02T02:04:06.895Z,14.69
2017-07-02T02:05:06.876Z,14.66
2017-07-02T02:06:06.852Z,14.67
2017-07-02T02:07:06.828Z,14.63
2017-07-02T02:08:06.843Z,14.61
2017-07-02T02:09:06.796Z,14.61
2017-07-02T02:10:06.764Z,14.57
2017-07-02T02:11:06.745Z,14.61
2017-07-02T02:12:06.729Z,14.63
2017-07-02T02:13:06.704Z,14.67
2017-07-02T02:14:06.686Z,14.63
2017-07-02T02:15:06.662Z,14.63
2017-07-02T02:16:06.639Z,14.69
2017-07-02T02:17:06.625Z,14.61
2017-07-02T02:18:06.297Z,14.67
2017-07-02T02:19:06.577Z,14.63
2017-07-02T02:20:06.556Z,14.64
2017-07-02T02:21:06.540Z,14.64
2017-07-02T02:22:06.513Z,14.67
2017-07-02T02:23:06.498Z,14.66
2017-07-02T02:24:06.467Z,14.64
2017-07-02T02:25:06.451Z,14.56
2017-07-02T02:26:06.426Z,14.66
2017-07-02T02:27:06.411Z,14.61
2017-07-02T02:28:06.091Z,14.61
2017-07-02T02:29:06.365Z,14.61
2017-07-02T02:30:06.341Z,14.66
2017-07-02T02:31:06.016Z,14.63
2017-07-02T02:32:06.301Z,14.63
2017-07-02T02:33:06.282Z,14.61
2017-07-02T02:34:06.509Z,14.63
2017-07-02T02:35:06.236Z,14.71
2017-07-02T02:36:06.221Z,14.64
2017-07-02T02:37:06.189Z,14.71
2017-07-02T02:38:06.165Z,14.72
2017-07-02T02:39:06.153Z,14.74
2017-07-02T02:40:06.126Z,14.8
2017-07-02T02:41:06.195Z,14.74
2017-07-02T02:42:05.791Z,14.69
2017-07-02T02:43:06.068Z,14.83
2017-07-02T02:44:06.048Z,14.86
2017-07-02T02:45:06.025Z,14.9
2017-07-02T02:46:05.704Z,14.86
2017-07-02T02:47:05.980Z,14.8
2017-07-02T02:48:05.958Z,14.86
2017-07-02T02:49:05.938Z,14.79
2017-07-02T02:50:05.918Z,14.83
2017-07-02T02:51:05.942Z,14.85
2017-07-02T02:52:05.879Z,14.82
2017-07-02T02:53:05.850Z,14.85
2017-07-02T02:54:05.828Z,14.8
2017-07-02T02:55:05.913Z,14.85
2017-07-02T02:56:05.799Z,14.83
2017-07-02T02:57:05.776Z,14.82
2017-07-02T02:58:05.451Z,14.85
2017-07-02T02:59:05.725Z,14.91
2017-07-02T03:00:05.708Z,14.83
2017-07-02T03:01:05.693Z,14.9
2017-07-02T03:02:05.663Z,14.87
2017-07-02T03:03:05.340Z,14.93
2017-07-02T03:04:05.626Z,14.91
2017-07-02T03:05:05.607Z,14.87
2017-07-02T03:06:05.580Z,14.86
2017-07-02T03:07:05.265Z,14.86
2017-07-02T03:08:05.533Z,14.93
2017-07-02T03:09:05.214Z,14.9
2017-07-02T03:10:05.498Z,14.86
2017-07-02T03:11:05.468Z,14.8
2017-07-02T03:12:05.458Z,14.79
2017-07-02T03:13:05.443Z,14.85
2017-07-02T03:14:05.409Z,14.83
2017-07-02T03:15:05.388Z,14.83
2017-07-02T03:16:05.370Z,14.82
2017-07-02T03:17:05.346Z,14.85
2017-07-02T03:18:05.326Z,14.83
2017-07-02T03:19:05.310Z,14.93
2017-07-02T03:20:05.331Z,14.87
2017-07-02T03:21:05.266Z,14.86
2017-07-02T03:22:05.242Z,14.86
2017-07-02T03:23:05.262Z,14.91
2017-07-02T03:24:05.200Z,14.87
2017-07-02T03:25:05.178Z,14.9
2017-07-02T03:26:05.153Z,14.85
2017-07-02T03:27:05.132Z,14.9
2017-07-02T03:28:05.111Z,14.93
2017-07-02T03:29:05.095Z,14.85
2017-07-02T03:30:05.077Z,14.86
2017-07-02T03:31:05.048Z,14.86
2017-07-02T03:32:04.728Z,14.87
2017-07-02T03:33:05.055Z,14.91
2017-07-02T03:34:04.990Z,14.86
2017-07-02T03:35:04.968Z,14.86
2017-07-02T03:36:04.942Z,14.94
2017-07-02T03:37:04.924Z,14.97
2017-07-02T03:38:04.901Z,14.97
2017-07-02T03:39:04.576Z,14.94
2017-07-02T03:40:04.603Z,14.91
2017-07-02T03:41:04.838Z,14.86
2017-07-02T03:42:04.812Z,14.86
2017-07-02T03:43:04.803Z,14.9
2017-07-02T03:44:04.775Z,14.87
2017-07-02T03:45:04.753Z,14.91
2017-07-02T03:46:05.035Z,14.9
2017-07-02T03:47:04.715Z,15
2017-07-02T03:48:04.693Z,14.93
2017-07-02T03:49:04.672Z,14.86
2017-07-02T03:50:04.648Z,14.87
2017-07-02T03:51:04.624Z,14.87
2017-07-02T03:52:04.654Z,14.86
2017-07-02T03:53:04.587Z,14.87
2017-07-02T03:54:04.610Z,14.9
2017-07-02T03:55:04.540Z,14.93
2017-07-02T03:56:04.535Z,14.97
2017-07-02T03:57:04.494Z,14.95
2017-07-02T03:58:04.479Z,15.03
2017-07-02T03:59:04.453Z,14.94
2017-07-02T04:00:04.185Z,14.97
2017-07-02T04:01:04.413Z,15.09
2017-07-02T04:02:04.404Z,14.97
2017-07-02T04:03:04.373Z,15
2017-07-02T04:04:04.347Z,15.09
2017-07-02T04:05:04.346Z,14.97
2017-07-02T04:06:04.305Z,15
2017-07-02T04:07:04.288Z,15.07
2017-07-02T04:08:04.261Z,15.12
2017-07-02T04:09:04.244Z,15.15
2017-07-02T04:10:04.218Z,15.11
2017-07-02T04:11:04.198Z,15.05
2017-07-02T04:12:04.182Z,15.15
2017-07-02T04:13:04.203Z,15.12
2017-07-02T04:14:03.837Z,15.11
2017-07-02T04:15:04.115Z,15.09
2017-07-02T04:16:04.100Z,15.09
2017-07-02T04:17:04.075Z,15.11
2017-07-02T04:18:04.052Z,15.11
2017-07-02T04:19:04.031Z,15.12
2017-07-02T04:20:04.025Z,15.18
2017-07-02T04:21:03.695Z,15.16
2017-07-02T04:22:03.976Z,15.13
2017-07-02T04:23:03.951Z,15.16
2017-07-02T04:24:03.931Z,15.18
2017-07-02T04:25:03.913Z,15.23
2017-07-02T04:26:03.888Z,15.18
2017-07-02T04:27:03.915Z,15.19
2017-07-02T04:28:03.851Z,15.28
2017-07-02T04:29:03.823Z,15.2
2017-07-02T04:30:03.811Z,15.27
2017-07-02T04:31:03.780Z,15.31
2017-07-02T04:32:03.763Z,15.25
2017-07-02T04:33:03.740Z,15.25
2017-07-02T04:34:03.723Z,15.31
2017-07-02T04:35:03.701Z,15.34
2017-07-02T04:36:03.682Z,15.27
2017-07-02T04:37:03.659Z,15.31
2017-07-02T04:38:03.335Z,15.31
2017-07-02T04:39:03.614Z,15.31
2017-07-02T04:40:03.594Z,15.31
2017-07-02T04:41:03.573Z,15.23
2017-07-02T04:42:03.599Z,15.34
2017-07-02T04:43:03.228Z,15.35
2017-07-02T04:44:03.509Z,15.37
2017-07-02T04:45:03.495Z,15.33
2017-07-02T04:46:03.470Z,15.37
2017-07-02T04:47:03.449Z,15.37
2017-07-02T04:48:03.469Z,15.44
2017-07-02T04:49:03.408Z,15.44
2017-07-02T04:50:03.385Z,15.43
2017-07-02T04:51:03.374Z,15.46
2017-07-02T04:52:03.347Z,15.48
2017-07-02T04:53:03.317Z,15.48
2017-07-02T04:54:03.346Z,15.51
2017-07-02T04:55:03.327Z,15.53
2017-07-02T04:56:03.258Z,15.52
2017-07-02T04:57:02.941Z,15.59
2017-07-02T04:58:03.219Z,15.62
2017-07-02T04:59:03.248Z,15.62
2017-07-02T05:00:03.175Z,15.64
2017-07-02T05:01:03.150Z,15.62
2017-07-02T05:02:03.138Z,15.6
2017-07-02T05:03:03.151Z,15.66
2017-07-02T05:04:02.792Z,15.7
2017-07-02T05:05:03.083Z,15.66
2017-07-02T05:06:03.059Z,15.7
2017-07-02T05:07:03.029Z,15.67
2017-07-02T05:08:03.015Z,15.78
2017-07-02T05:09:03.039Z,15.76
2017-07-02T05:10:02.971Z,15.74
2017-07-02T05:11:02.953Z,15.76
2017-07-02T05:12:02.926Z,15.76
2017-07-02T05:13:02.903Z,15.77
2017-07-02T05:14:02.586Z,15.81
2017-07-02T05:15:02.862Z,15.81
2017-07-02T05:16:02.839Z,15.85
2017-07-02T05:17:02.820Z,15.76
2017-07-02T05:18:02.856Z,15.77
2017-07-02T05:19:02.790Z,15.77
2017-07-02T05:20:02.451Z,15.8
2017-07-02T05:21:02.739Z,15.74
2017-07-02T05:22:02.724Z,15.8
2017-07-02T05:23:02.697Z,15.85
2017-07-02T05:24:02.677Z,15.91
2017-07-02T05:25:02.653Z,15.85
2017-07-02T05:26:02.637Z,15.92
2017-07-02T05:27:02.618Z,15.86
2017-07-02T05:28:02.595Z,15.85
2017-07-02T05:29:02.582Z,15.91
2017-07-02T05:30:02.555Z,15.86
2017-07-02T05:31:02.531Z,15.91
2017-07-02T05:32:02.511Z,15.92
2017-07-02T05:33:02.495Z,15.88
2017-07-02T05:34:02.470Z,15.86
2017-07-02T05:35:02.452Z,15.91
2017-07-02T05:36:02.434Z,15.89
2017-07-02T05:37:02.410Z,15.99
2017-07-02T05:38:02.395Z,15.91
2017-07-02T05:39:02.378Z,16.03
2017-07-02T05:40:02.350Z,15.96
2017-07-02T05:41:02.329Z,16.01
2017-07-02T05:42:02.306Z,16.04
2017-07-02T05:43:01.678Z,16.08
2017-07-02T05:44:02.275Z,16.03
2017-07-02T05:45:02.245Z,16.14
2017-07-02T05:46:02.230Z,16.25
2017-07-02T05:47:02.214Z,16.3
2017-07-02T05:48:02.235Z,16.51
2017-07-02T05:49:02.172Z,16.63
2017-07-02T05:50:02.199Z,16.75
2017-07-02T05:51:02.121Z,16.87
2017-07-02T05:52:02.361Z,17.09
2017-07-02T05:53:02.085Z,17.24
2017-07-02T05:54:02.062Z,17.33
2017-07-02T05:55:02.047Z,17.35
2017-07-02T05:56:02.032Z,17.6
2017-07-02T05:57:02.004Z,17.74
2017-07-02T05:58:01.988Z,17.76
2017-07-02T05:59:01.963Z,17.8
2017-07-02T06:00:01.944Z,17.99
2017-07-02T06:01:01.929Z,18.07
2017-07-02T06:02:01.906Z,18.14
2017-07-02T06:03:01.890Z,18.32
2017-07-02T06:04:01.865Z,18.53
2017-07-02T06:05:01.852Z,18.59
2017-07-02T06:06:01.839Z,18.57
2017-07-02T06:07:01.816Z,18.62
2017-07-02T06:08:01.792Z,18.69
2017-07-02T06:09:01.775Z,18.68
2017-07-02T06:10:01.759Z,18.64
2017-07-02T06:11:01.740Z,18.65
2017-07-02T06:12:01.751Z,18.65
2017-07-02T06:13:01.445Z,18.56
2017-07-02T06:14:01.684Z,18.56
2017-07-02T06:15:01.662Z,18.54
2017-07-02T06:16:01.353Z,18.39
2017-07-02T06:17:01.878Z,18.32
2017-07-02T06:18:01.602Z,18.25
2017-07-02T06:19:01.588Z,18.29
2017-07-02T06:20:01.566Z,18.17
2017-07-02T06:21:01.551Z,18.13
2017-07-02T06:22:01.536Z,18.11
2017-07-02T06:23:01.512Z,18.09
2017-07-02T06:24:01.193Z,18.09
2017-07-02T06:25:01.481Z,17.99
2017-07-02T06:26:01.148Z,18.05
2017-07-02T06:27:01.432Z,17.83
2017-07-02T06:28:01.108Z,17.92
2017-07-02T06:29:01.395Z,17.8
2017-07-02T06:30:01.379Z,17.81
2017-07-02T06:31:01.361Z,17.87
2017-07-02T06:32:01.348Z,17.71
2017-07-02T06:33:01.327Z,17.8
2017-07-02T06:34:01.348Z,17.73
2017-07-02T06:35:01.279Z,17.71
2017-07-02T06:36:01.261Z,17.62
2017-07-02T06:37:01.246Z,17.68
2017-07-02T06:38:01.224Z,17.65
2017-07-02T06:39:01.211Z,17.7
2017-07-02T06:40:01.182Z,17.66
2017-07-02T06:41:01.170Z,17.63
2017-07-02T06:42:01.153Z,17.74
2017-07-02T06:43:01.132Z,17.8
2017-07-02T06:44:01.110Z,17.81
2017-07-02T06:45:01.099Z,17.86
2017-07-02T06:46:01.063Z,17.84
2017-07-02T06:47:00.751Z,17.86
2017-07-02T06:48:01.072Z,17.89
2017-07-02T06:49:01.014Z,18.01
2017-07-02T06:50:00.993Z,17.89
2017-07-02T06:51:00.980Z,18.14
2017-07-02T06:52:00.953Z,18.07
2017-07-02T06:53:00.936Z,18.16
2017-07-02T06:54:00.909Z,18.17
2017-07-02T06:55:00.891Z,18.13
2017-07-02T06:56:00.878Z,18.09
2017-07-02T06:57:00.855Z,18.1
2017-07-02T06:58:00.836Z,18.07
2017-07-02T06:59:00.820Z,18.02
2017-07-02T07:00:00.806Z,18.04
2017-07-02T07:01:00.730Z,18.14
2017-07-02T07:02:00.762Z,18.04
2017-07-02T07:03:00.786Z,18.01
2017-07-02T07:04:00.727Z,17.99
2017-07-02T07:05:00.709Z,17.81
2017-07-02T07:06:00.689Z,17.94
2017-07-02T07:07:00.729Z,17.89
2017-07-02T07:08:00.649Z,17.92
2017-07-02T07:09:00.326Z,17.79
2017-07-02T07:10:00.607Z,17.77
2017-07-02T07:11:00.586Z,17.89
2017-07-02T07:12:00.570Z,17.83
2017-07-02T07:13:00.253Z,17.8
2017-07-02T07:14:00.529Z,17.8
2017-07-02T07:15:00.211Z,17.81
2017-07-02T07:16:00.490Z,17.8
2017-07-02T07:17:00.473Z,17.8
2017-07-02T07:18:00.149Z,17.81
2017-07-02T07:19:00.446Z,17.89
2017-07-02T07:20:00.420Z,17.92
2017-07-02T07:21:00.442Z,17.8
2017-07-02T07:22:00.370Z,17.83
2017-07-02T07:23:00.354Z,17.77
2017-07-02T07:24:00.340Z,17.77
2017-07-02T07:25:00.360Z,17.76
2017-07-02T07:26:00.292Z,17.66
2017-07-02T07:27:00.280Z,17.6
2017-07-02T07:28:00.263Z,17.53
2017-07-02T07:29:00.244Z,17.51
2017-07-02T07:30:00.267Z,17.45
2017-07-02T07:31:00.197Z,17.46
2017-07-02T07:32:00.229Z,17.49
2017-07-02T07:33:00.196Z,17.54
2017-07-02T07:34:00.146Z,17.54
2017-07-02T07:35:00.135Z,17.6
2017-07-02T07:36:00.102Z,17.63
2017-07-02T07:37:00.077Z,17.76
2017-07-02T07:38:00.064Z,17.77
2017-07-02T07:39:00.039Z,17.87
2017-07-02T07:39:59.712Z,17.83
2017-07-02T07:41:00.007Z,17.92
2017-07-02T07:41:59.977Z,18.01
2017-07-02T07:42:59.955Z,17.95
2017-07-02T07:43:59.941Z,17.96
2017-07-02T07:44:59.927Z,17.99
2017-07-02T07:45:59.902Z,17.98
2017-07-02T07:46:59.883Z,17.94
2017-07-02T07:47:59.567Z,17.84
2017-07-02T07:48:59.845Z,17.81
2017-07-02T07:49:59.822Z,17.91
2017-07-02T07:50:59.556Z,17.81
2017-07-02T07:51:59.778Z,17.81
2017-07-02T07:52:59.760Z,17.62
2017-07-02T07:53:59.748Z,17.68
2017-07-02T07:54:59.718Z,17.63
2017-07-02T07:55:59.701Z,17.55
2017-07-02T07:56:59.690Z,17.55
2017-07-02T07:57:59.711Z,17.54
2017-07-02T07:58:59.685Z,17.45
2017-07-02T07:59:59.634Z,17.55
2017-07-02T08:00:59.668Z,17.43
2017-07-02T08:01:59.618Z,17.42
2017-07-02T08:02:59.581Z,17.43
2017-07-02T08:03:59.541Z,17.53
2017-07-02T08:04:59.529Z,17.43
2017-07-02T08:05:59.527Z,17.43
2017-07-02T08:06:59.485Z,17.32
2017-07-02T08:07:59.471Z,17.35
2017-07-02T08:08:59.447Z,17.32
2017-07-02T08:09:59.485Z,17.38
2017-07-02T08:10:59.408Z,17.38
2017-07-02T08:11:59.385Z,17.27
2017-07-02T08:12:59.064Z,17.33
2017-07-02T08:13:59.339Z,17.36
2017-07-02T08:14:59.331Z,17.36
2017-07-02T08:15:59.299Z,17.36
2017-07-02T08:16:59.294Z,17.38
2017-07-02T08:17:59.268Z,17.42
2017-07-02T08:18:59.249Z,17.39
2017-07-02T08:19:59.281Z,17.42
2017-07-02T08:20:59.218Z,17.47
2017-07-02T08:21:59.198Z,17.46
2017-07-02T08:22:58.865Z,17.47
2017-07-02T08:23:59.150Z,17.49
2017-07-02T08:24:59.123Z,17.57
2017-07-02T08:25:59.107Z,17.57
2017-07-02T08:26:59.082Z,17.51
2017-07-02T08:27:59.068Z,17.53
2017-07-02T08:28:59.042Z,17.54
2017-07-02T08:29:59.071Z,17.51
2017-07-02T08:30:59.050Z,17.57
2017-07-02T08:31:59.035Z,17.6
2017-07-02T08:32:58.961Z,17.66
2017-07-02T08:33:58.935Z,17.7
2017-07-02T08:34:58.921Z,17.71
2017-07-02T08:35:58.908Z,17.73
2017-07-02T08:36:58.927Z,17.74
2017-07-02T08:37:58.865Z,17.68
2017-07-02T08:38:58.838Z,17.58
2017-07-02T08:39:58.830Z,17.54
2017-07-02T08:40:58.805Z,17.53
2017-07-02T08:41:58.783Z,17.46
2017-07-02T08:42:58.762Z,17.53
2017-07-02T08:43:58.449Z,17.49
2017-07-02T08:44:58.720Z,17.54
2017-07-02T08:45:58.702Z,17.54
2017-07-02T08:46:58.385Z,17.42
2017-07-02T08:47:58.365Z,17.4
2017-07-02T08:48:58.653Z,17.39
2017-07-02T08:49:58.632Z,17.32
2017-07-02T08:50:58.604Z,17.42
2017-07-02T08:51:58.576Z,17.43
2017-07-02T08:52:58.565Z,17.43
2017-07-02T08:53:58.295Z,17.42
2017-07-02T08:54:58.535Z,17.49
2017-07-02T08:55:58.502Z,17.55
2017-07-02T08:56:58.183Z,17.57
2017-07-02T08:57:58.521Z,17.57
2017-07-02T08:58:58.487Z,17.57
2017-07-02T08:59:58.424Z,17.54
2017-07-02T09:00:58.398Z,17.6
2017-07-02T09:01:58.386Z,17.54
2017-07-02T09:02:58.362Z,17.51
2017-07-02T09:03:58.038Z,17.57
2017-07-02T09:04:58.322Z,17.58
2017-07-02T09:05:58.305Z,17.68
2017-07-02T09:06:58.333Z,17.76
2017-07-02T09:07:58.268Z,17.79
2017-07-02T09:08:58.298Z,17.89
2017-07-02T09:09:58.223Z,17.8
2017-07-02T09:10:58.210Z,17.81
2017-07-02T09:11:58.189Z,17.83
2017-07-02T09:12:57.870Z,17.92
2017-07-02T09:13:58.161Z,17.99
2017-07-02T09:14:58.127Z,17.96
2017-07-02T09:15:58.169Z,18.01
2017-07-02T09:16:58.084Z,17.94
2017-07-02T09:17:58.127Z,17.99
2017-07-02T09:18:57.742Z,17.91
2017-07-02T09:19:58.032Z,17.87
2017-07-02T09:20:58.005Z,17.8
2017-07-02T09:21:57.989Z,17.95
2017-07-02T09:22:57.965Z,17.94
2017-07-02T09:23:57.966Z,17.92
2017-07-02T09:24:57.932Z,17.92
2017-07-02T09:25:57.902Z,17.94
2017-07-02T09:26:57.891Z,17.84
2017-07-02T09:27:57.880Z,17.96
2017-07-02T09:28:57.858Z,17.89
2017-07-02T09:29:57.828Z,17.89
2017-07-02T09:30:57.867Z,17.95
2017-07-02T09:31:57.796Z,18.07
2017-07-02T09:32:57.770Z,17.99
2017-07-02T09:33:57.437Z,18.07
2017-07-02T09:34:57.729Z,18.07
2017-07-02T09:35:57.709Z,18.1
2017-07-02T09:36:57.936Z,18.04
2017-07-02T09:37:57.681Z,18.09
2017-07-02T09:38:57.666Z,18.07
2017-07-02T09:39:57.633Z,18.05
2017-07-02T09:40:57.613Z,18.09
2017-07-02T09:41:57.592Z,18.1
2017-07-02T09:42:57.271Z,18.13
2017-07-02T09:43:57.248Z,18.17
2017-07-02T09:44:57.544Z,18.21
2017-07-02T09:45:57.509Z,18.23
2017-07-02T09:46:57.491Z,18.32
2017-07-02T09:47:57.478Z,18.25
2017-07-02T09:48:57.464Z,18.31
2017-07-02T09:49:57.437Z,18.34
2017-07-02T09:50:57.422Z,18.29
2017-07-02T09:51:57.658Z,18.28
2017-07-02T09:52:57.433Z,18.32
2017-07-02T09:53:57.362Z,18.26
2017-07-02T09:54:57.401Z,18.26
2017-07-02T09:55:57.319Z,18.23
2017-07-02T09:56:57.001Z,18.28
2017-07-02T09:57:57.284Z,18.31
2017-07-02T09:58:57.260Z,18.17
2017-07-02T09:59:57.243Z,18.28
2017-07-02T10:00:57.275Z,18.35
2017-07-02T10:01:57.202Z,18.21
2017-07-02T10:02:56.883Z,18.25
2017-07-02T10:03:56.861Z,18.31
2017-07-02T10:04:57.139Z,18.38
2017-07-02T10:05:57.119Z,18.29
2017-07-02T10:06:57.102Z,18.34
2017-07-02T10:07:57.087Z,18.53
2017-07-02T10:08:57.066Z,18.56
2017-07-02T10:09:56.741Z,18.56
2017-07-02T10:10:57.032Z,18.56
2017-07-02T10:11:57.014Z,18.69
2017-07-02T10:12:56.997Z,18.65
2017-07-02T10:13:56.970Z,18.65
2017-07-02T10:14:56.949Z,18.64
2017-07-02T10:15:56.641Z,18.62
2017-07-02T10:16:56.917Z,18.74
2017-07-02T10:17:56.597Z,18.79
2017-07-02T10:18:56.573Z,18.87
2017-07-02T10:19:56.864Z,18.91
2017-07-02T10:20:56.830Z,18.97
2017-07-02T10:21:56.527Z,18.99
2017-07-02T10:22:56.796Z,18.96
2017-07-02T10:23:56.785Z,19.1
2017-07-02T10:24:56.759Z,19.05
2017-07-02T10:25:56.438Z,19.09
2017-07-02T10:26:56.727Z,19.16
2017-07-02T10:27:56.399Z,19.05
2017-07-02T10:28:56.684Z,19.05
2017-07-02T10:29:56.669Z,19.01
2017-07-02T10:30:56.649Z,18.91
2017-07-02T10:31:56.628Z,18.75
2017-07-02T10:32:56.609Z,18.69
2017-07-02T10:33:56.600Z,18.75
2017-07-02T10:34:56.572Z,18.69
2017-07-02T10:35:56.556Z,18.62
2017-07-02T10:36:56.546Z,18.56
2017-07-02T10:37:56.209Z,18.6
2017-07-02T10:38:56.190Z,18.54
2017-07-02T10:39:56.473Z,18.5
2017-07-02T10:40:56.470Z,18.56
2017-07-02T10:41:56.144Z,18.49
2017-07-02T10:42:56.420Z,18.5
2017-07-02T10:43:56.406Z,18.36
2017-07-02T10:44:56.584Z,18.44
2017-07-02T10:45:56.354Z,18.31
2017-07-02T10:46:56.095Z,18.29
2017-07-02T10:47:56.382Z,18.34
2017-07-02T10:48:56.323Z,18.29
2017-07-02T10:49:56.534Z,18.23
2017-07-02T10:50:56.275Z,18.28
2017-07-02T10:51:56.285Z,18.1
2017-07-02T10:52:56.218Z,18.05
2017-07-02T10:53:55.907Z,17.94
2017-07-02T10:54:56.185Z,17.91
2017-07-02T10:55:56.168Z,17.86
2017-07-02T10:56:56.160Z,17.65
2017-07-02T10:57:55.822Z,17.63
2017-07-02T10:58:56.107Z,17.51
2017-07-02T10:59:56.138Z,17.47
2017-07-02T11:00:56.066Z,17.4
2017-07-02T11:01:55.739Z,17.32
2017-07-02T11:02:56.034Z,17.33
2017-07-02T11:03:56.016Z,17.33
2017-07-02T11:04:55.994Z,17.3
2017-07-02T11:05:55.969Z,17.32
2017-07-02T11:06:55.951Z,17.38
2017-07-02T11:07:55.921Z,17.27
2017-07-02T11:08:55.913Z,17.35
2017-07-02T11:09:55.894Z,17.3
2017-07-02T11:10:55.946Z,17.27
2017-07-02T11:11:55.849Z,17.33
2017-07-02T11:12:55.821Z,17.33
2017-07-02T11:13:55.804Z,17.38
2017-07-02T11:14:55.796Z,17.33
2017-07-02T11:15:55.457Z,17.39
2017-07-02T11:16:55.435Z,17.35
2017-07-02T11:17:55.772Z,17.4
2017-07-02T11:18:55.707Z,17.33
2017-07-02T11:19:55.703Z,17.28
2017-07-02T11:20:55.675Z,17.32
2017-07-02T11:21:55.641Z,17.4
2017-07-02T11:22:55.369Z,17.36
2017-07-02T11:23:55.601Z,17.36
2017-07-02T11:24:55.579Z,17.36
2017-07-02T11:25:55.556Z,17.51
2017-07-02T11:26:55.545Z,17.58
2017-07-02T11:27:55.515Z,17.63
2017-07-02T11:28:55.495Z,17.77
2017-07-02T11:29:55.479Z,17.86
2017-07-02T11:30:55.462Z,17.87
2017-07-02T11:31:55.430Z,17.91
2017-07-02T11:32:55.430Z,17.87
2017-07-02T11:33:55.395Z,18.05
2017-07-02T11:34:55.379Z,18.09
2017-07-02T11:35:55.358Z,18.21
2017-07-02T11:36:55.039Z,18.32
2017-07-02T11:37:55.379Z,18.35
2017-07-02T11:38:55.040Z,18.41
2017-07-02T11:39:55.275Z,18.38
2017-07-02T11:40:55.264Z,18.41
2017-07-02T11:41:55.249Z,18.41
2017-07-02T11:42:55.214Z,18.41
2017-07-02T11:43:54.902Z,18.41
2017-07-02T11:44:55.175Z,18.49
2017-07-02T11:45:55.155Z,18.42
2017-07-02T11:46:55.136Z,18.41
2017-07-02T11:47:55.115Z,18.38
2017-07-02T11:48:55.099Z,18.51
2017-07-02T11:49:54.778Z,18.42
2017-07-02T11:50:55.070Z,18.54
2017-07-02T11:51:55.167Z,18.51
2017-07-02T11:52:55.029Z,18.51
2017-07-02T11:53:54.704Z,18.57
2017-07-02T11:54:54.389Z,18.53
2017-07-02T11:55:54.681Z,18.51
2017-07-02T11:56:54.946Z,18.6
2017-07-02T11:57:54.928Z,18.72
2017-07-02T11:58:54.904Z,18.76
2017-07-02T11:59:54.887Z,18.76
2017-07-02T12:00:54.871Z,18.93
2017-07-02T12:01:54.842Z,18.94
2017-07-02T12:02:54.828Z,19.13
2017-07-02T12:03:54.538Z,19.17
2017-07-02T12:04:54.786Z,19.3
2017-07-02T12:05:54.825Z,19.3
2017-07-02T12:06:54.744Z,19.35
2017-07-02T12:07:54.731Z,19.35
2017-07-02T12:08:54.714Z,19.3
2017-07-02T12:09:54.693Z,19.43
2017-07-02T12:10:54.371Z,19.49
2017-07-02T12:11:54.668Z,19.4
2017-07-02T12:12:54.712Z,19.43
2017-07-02T12:13:54.635Z,19.35
2017-07-02T12:14:54.013Z,19.42
2017-07-02T12:15:54.587Z,19.57
2017-07-02T12:16:54.573Z,19.57
2017-07-02T12:17:54.599Z,19.65
2017-07-02T12:18:54.530Z,19.71
2017-07-02T12:19:54.822Z,19.7
2017-07-02T12:20:54.510Z,19.83
2017-07-02T12:21:54.466Z,19.89
2017-07-02T12:22:54.485Z,19.92
2017-07-02T12:23:54.441Z,19.94
2017-07-02T12:24:54.417Z,19.98
2017-07-02T12:25:54.404Z,19.97
2017-07-02T12:26:54.384Z,20
2017-07-02T12:27:54.358Z,20.04
2017-07-02T12:28:54.345Z,20.07
2017-07-02T12:29:54.327Z,20.15
2017-07-02T12:30:54.315Z,20.2
2017-07-02T12:31:53.993Z,20.33
2017-07-02T12:32:54.039Z,20.41
2017-07-02T12:33:54.259Z,20.48
2017-07-02T12:34:54.242Z,20.48
2017-07-02T12:35:54.212Z,20.61
2017-07-02T12:36:54.512Z,20.48
2017-07-02T12:37:54.210Z,20.46
2017-07-02T12:38:54.234Z,20.51
2017-07-02T12:39:53.842Z,20.51
2017-07-02T12:40:54.140Z,20.57
2017-07-02T12:41:54.108Z,20.56
2017-07-02T12:42:54.110Z,20.63
2017-07-02T12:43:54.129Z,20.68
2017-07-02T12:44:54.067Z,20.75
2017-07-02T12:45:53.756Z,20.79
2017-07-02T12:46:53.728Z,20.68
2017-07-02T12:47:53.395Z,20.68
2017-07-02T12:48:53.383Z,20.58
2017-07-02T12:49:53.963Z,20.51
2017-07-02T12:50:53.642Z,20.57
2017-07-02T12:51:53.630Z,20.54
2017-07-02T12:52:53.911Z,20.46
2017-07-02T12:53:53.889Z,20.63
2017-07-02T12:54:53.879Z,20.71